| time (UTC) | temp F | wind direction | speed MPH | gust MPH | rain 1hr in | rain 24hr in | rain mn in | humidity % | barometer mb |
| 20260505153101 | 0 | 0.0 | 0.0 | 0.00 | 0.00 | 0.00 | 1015.3 | ||
| 20260505153003 | 36 | 54 | 1.0 | 3.0 | 0.00 | 0.00 | 0.00 | 97 | 1017.3 |
| 20260505152500 | 36 | 85 | 0.0 | 2.0 | 0.00 | 0.00 | 0.00 | 97 | 1017.6 |
| 20260505151955 | 36 | 62 | 2.0 | 2.0 | 0.00 | 0.00 | 0.00 | 97 | 1017.4 |
| 20260505151549 | 0 | 0.0 | 0.0 | 0.00 | 0.00 | 0.00 | 1015.4 | ||
| 20260505151451 | 36 | 252 | 1.0 | 3.0 | 0.00 | 0.00 | 0.00 | 97 | 1017.5 |
| 20260505150949 | 36 | 25 | 0.0 | 3.0 | 0.00 | 0.00 | 0.00 | 97 | 1017.4 |
| 20260505150445 | 36 | 41 | 1.0 | 3.0 | 0.00 | 0.00 | 0.00 | 97 | 1017.5 |
| 20260505140415 | 36 | 109 | 0.0 | 3.0 | 0.00 | 0.00 | 0.00 | 97 | 1017.9 |
| 20260505124829 | 36 | 85 | 2.0 | 4.0 | 0.00 | 0.00 | 0.00 | 96 | 1016.5 |
| 20260505124557 | 0 | 0.0 | 0.0 | 0.00 | 0.00 | 0.00 | 1014.4 | ||
| 20260505124326 | 36 | 289 | 1.0 | 4.0 | 0.00 | 0.00 | 0.00 | 96 | 1016.5 |
| 20260505123822 | 37 | 295 | 3.0 | 4.0 | 0.00 | 0.00 | 0.00 | 96 | 1016.3 |
| 20260505123319 | 37 | 359 | 1.0 | 2.0 | 0.00 | 0.00 | 0.00 | 96 | 1016.2 |
| 20260505123053 | 0 | 0.0 | 0.0 | 0.00 | 0.00 | 0.00 | 1013.9 | ||
| 20260505122815 | 37 | 99 | 3.0 | 3.0 | 0.00 | 0.00 | 0.00 | 96 | 1016.1 |
| 20260505122312 | 37 | 89 | 2.0 | 4.0 | 0.00 | 0.00 | 0.00 | 96 | 1016.6 |
| 20260505121808 | 37 | 38 | 2.0 | 5.0 | 0.00 | 0.00 | 0.00 | 96 | 1016.2 |
| 20260505121554 | 0 | 0.0 | 0.0 | 0.00 | 0.00 | 0.00 | 1013.9 | ||
| 20260505121306 | 37 | 161 | 2.0 | 4.0 | 0.00 | 0.00 | 0.00 | 96 | 1016.1 |
| 20260505120802 | 38 | 59 | 4.0 | 5.0 | 0.00 | 0.00 | 0.00 | 96 | 1016.0 |
| 20260505120258 | 38 | 69 | 6.0 | 6.0 | 0.00 | 0.00 | 0.00 | 96 | 1015.9 |
| 20260505120106 | 0 | 0.0 | 0.0 | 0.00 | 0.00 | 0.00 | 1013.6 | ||
| 20260505115756 | 38 | 12 | 2.0 | 4.0 | 0.00 | 0.00 | 0.00 | 96 | 1015.7 |
| 20260505115254 | 38 | 33 | 2.0 | 4.0 | 0.00 | 0.00 | 0.00 | 96 | 1015.6 |
| 20260505114751 | 38 | 260 | 2.0 | 5.0 | 0.00 | 0.00 | 0.00 | 96 | 1015.6 |
| 20260505114551 | 0 | 0.0 | 0.0 | 0.00 | 0.00 | 0.00 | 1013.4 | ||
| 20260505114247 | 38 | 130 | 0.0 | 3.0 | 0.00 | 0.00 | 0.00 | 96 | 1015.4 |
| 20260505113744 | 38 | 160 | 2.0 | 5.0 | 0.00 | 0.00 | 0.00 | 95 | 1015.5 |
| 20260505113241 | 39 | 15 | 2.0 | 5.0 | 0.00 | 0.00 | 0.00 | 95 | 1015.9 |
| 20260505113101 | 0 | 0.0 | 0.0 | 0.00 | 0.00 | 0.00 | 1013.4 | ||
| 20260505112737 | 39 | 343 | 2.0 | 4.0 | 0.00 | 0.00 | 0.00 | 95 | 1015.3 |
| 20260505112235 | 39 | 271 | 1.0 | 4.0 | 0.00 | 0.00 | 0.00 | 95 | 1015.4 |
| 20260505111735 | 40 | 221 | 2.0 | 4.0 | 0.00 | 0.00 | 0.00 | 95 | 1015.3 |
| 20260505111551 | 0 | 0.0 | 0.0 | 0.00 | 0.00 | 0.00 | 1013.3 | ||
| 20260505111231 | 40 | 49 | 3.0 | 5.0 | 0.00 | 0.00 | 0.00 | 95 | 1015.5 |
| 20260505110727 | 40 | 49 | 2.0 | 4.0 | 0.00 | 0.00 | 0.00 | 95 | 1015.3 |
| 20260505110225 | 40 | 139 | 2.0 | 5.0 | 0.00 | 0.00 | 0.00 | 95 | 1015.0 |
| 20260505102200 | 42 | 19 | 1.0 | 6.0 | 0.00 | 0.00 | 0.00 | 96 | 1014.2 |
| 20260505101659 | 42 | 309 | 1.0 | 5.0 | 0.00 | 0.00 | 0.00 | 96 | 1013.7 |
| 20260505101556 | 0 | 0.0 | 0.0 | 0.00 | 0.00 | 0.00 | 1011.5 | ||
| 20260505101154 | 42 | 42 | 2.0 | 6.0 | 0.00 | 0.00 | 0.00 | 96 | 1013.9 |
| 20260505100650 | 42 | 68 | 2.0 | 5.0 | 0.00 | 0.00 | 0.00 | 96 | 1014.1 |
| 20260505100148 | 42 | 196 | 2.0 | 5.0 | 0.00 | 0.00 | 0.00 | 96 | 1014.1 |
| 20260505100049 | 0 | 0.0 | 0.0 | 0.00 | 0.00 | 0.00 | 1011.6 | ||
| 20260505095643 | 42 | 47 | 2.0 | 4.0 | 0.00 | 0.00 | 0.00 | 96 | 1014.0 |
| 20260505095141 | 43 | 100 | 3.0 | 5.0 | 0.00 | 0.00 | 0.00 | 96 | 1014.2 |
| 20260505094637 | 43 | 253 | 0.0 | 3.0 | 0.00 | 0.00 | 0.00 | 96 | 1014.0 |
| 20260505094552 | 0 | 0.0 | 0.0 | 0.00 | 0.00 | 0.00 | 1011.7 | ||
| 20260505094133 | 43 | 45 | 3.0 | 4.0 | 0.00 | 0.00 | 0.00 | 96 | 1014.2 |
| 20260505093630 | 44 | 88 | 3.0 | 3.0 | 0.00 | 0.00 | 0.00 | 96 | 1014.1 |
| 20260505093127 | 44 | 101 | 2.0 | 4.0 | 0.00 | 0.00 | 0.00 | 96 | 1014.0 |
| 20260505093055 | 0 | 0.0 | 0.0 | 0.00 | 0.00 | 0.00 | 1011.6 | ||
| 20260505092624 | 46 | 239 | 3.0 | 6.0 | 0.00 | 0.00 | 0.00 | 96 | 1013.6 |
| 20260505092123 | 47 | 79 | 1.0 | 3.0 | 0.00 | 0.00 | 0.00 | 97 | 1013.9 |
| 20260505091619 | 47 | 55 | 1.0 | 2.0 | 0.00 | 0.00 | 0.00 | 97 | 1013.9 |
| 20260505091550 | 0 | 0.0 | 0.0 | 0.00 | 0.00 | 0.00 | 1011.3 | ||
| 20260505091118 | 47 | 44 | 1.0 | 2.0 | 0.00 | 0.00 | 0.00 | 96 | 1013.6 |
| 20260505090615 | 47 | 68 | 0.0 | 2.0 | 0.00 | 0.00 | 0.00 | 96 | 1013.6 |
| 20260505090113 | 47 | 40 | 2.0 | 2.0 | 0.00 | 0.00 | 0.00 | 96 | 1013.7 |
| 20260505090058 | 0 | 0.0 | 0.0 | 0.00 | 0.00 | 0.00 | 1011.4 | ||
| 20260505085610 | 47 | 315 | 1.0 | 2.0 | 0.00 | 0.00 | 0.00 | 96 | 1013.5 |
| 20260505085109 | 47 | 54 | 2.0 | 2.0 | 0.00 | 0.00 | 0.00 | 96 | 1013.6 |
| 20260505084606 | 46 | 35 | 2.0 | 2.0 | 0.00 | 0.00 | 0.00 | 96 | 1013.9 |
| 20260505084555 | 0 | 0.0 | 0.0 | 0.00 | 0.00 | 0.00 | 1011.3 | ||
| 20260505084104 | 46 | 302 | 0.0 | 1.0 | 0.00 | 0.00 | 0.00 | 96 | 1013.7 |
| 20260505083601 | 46 | 60 | 0.0 | 2.0 | 0.00 | 0.00 | 0.00 | 96 | 1014.0 |
| 20260505083103 | 0 | 0.0 | 0.0 | 0.00 | 0.00 | 0.00 | 1011.4 | ||
| 20260505083057 | 46 | 31 | 0.0 | 2.0 | 0.00 | 0.00 | 0.00 | 96 | 1013.6 |
| 20260505082553 | 46 | 39 | 0.0 | 2.0 | 0.00 | 0.00 | 0.00 | 96 | 1013.7 |
| 20260505082050 | 46 | 68 | 1.0 | 2.0 | 0.00 | 0.00 | 0.00 | 96 | 1013.7 |
| 20260505081555 | 0 | 0.0 | 0.0 | 0.00 | 0.00 | 0.00 | 1011.5 | ||
| 20260505081547 | 46 | 10 | 1.0 | 2.0 | 0.00 | 0.00 | 0.00 | 96 | 1013.9 |
| 20260505081044 | 46 | 66 | 2.0 | 2.0 | 0.00 | 0.00 | 0.00 | 96 | 1014.0 |
| 20260505080540 | 46 | 337 | 0.0 | 2.0 | 0.00 | 0.00 | 0.00 | 96 | 1014.2 |
| 20260505080051 | 0 | 0.0 | 0.0 | 0.00 | 0.00 | 0.00 | 1011.5 | ||
| 20260505080037 | 46 | 37 | 0.0 | 2.0 | 0.00 | 0.00 | 0.00 | 96 | 1013.9 |
| 20260505075533 | 46 | 105 | 2.0 | 2.0 | 0.00 | 0.00 | 0.00 | 96 | 1013.7 |
| 20260505075030 | 46 | 53 | 1.0 | 1.0 | 0.00 | 0.00 | 0.00 | 96 | 1013.7 |
| 20260505074548 | 0 | 0.0 | 0.0 | 0.00 | 0.00 | 0.00 | 1011.5 | ||
| 20260505074527 | 46 | 71 | 2.0 | 2.0 | 0.00 | 0.00 | 0.00 | 96 | 1013.9 |
| 20260505074024 | 47 | 45 | 2.0 | 2.0 | 0.00 | 0.00 | 0.00 | 96 | 1013.9 |
| 20260505073521 | 47 | 54 | 0.0 | 2.0 | 0.00 | 0.00 | 0.00 | 96 | 1014.1 |
| 20260505073051 | 0 | 0.0 | 0.0 | 0.00 | 0.00 | 0.00 | 1012.0 | ||
| 20260505073020 | 47 | 100 | 2.0 | 2.0 | 0.00 | 0.00 | 0.00 | 96 | 1014.4 |
| 20260505072515 | 47 | 28 | 1.0 | 2.0 | 0.00 | 0.00 | 0.00 | 96 | 1014.4 |
| 20260505072011 | 46 | 66 | 0.0 | 2.0 | 0.00 | 0.00 | 0.00 | 96 | 1014.3 |
| 20260505071550 | 0 | 0.0 | 0.0 | 0.00 | 0.00 | 0.00 | 1012.1 | ||
| 20260505071507 | 46 | 22 | 1.0 | 2.0 | 0.00 | 0.00 | 0.00 | 96 | 1014.4 |
| 20260505071005 | 47 | 45 | 1.0 | 2.0 | 0.00 | 0.00 | 0.00 | 96 | 1014.3 |
| 20260505070502 | 47 | 46 | 2.0 | 2.0 | 0.00 | 0.00 | 0.00 | 96 | 1014.6 |
| 20260505065957 | 47 | 92 | 1.0 | 2.0 | 0.00 | 0.00 | 0.00 | 96 | 1014.4 |
| 20260505065454 | 47 | 50 | 1.0 | 2.0 | 0.00 | 0.00 | 0.00 | 96 | 1014.3 |
| 20260505064951 | 47 | 81 | 3.0 | 3.0 | 0.00 | 0.00 | 0.00 | 96 | 1014.6 |
| 20260505064557 | 0 | 0.0 | 0.0 | 0.00 | 0.00 | 0.00 | 1012.2 | ||
| 20260505064448 | 46 | 122 | 0.0 | 3.0 | 0.00 | 0.00 | 0.00 | 96 | 1014.4 |
| 20260505063946 | 47 | 55 | 0.0 | 2.0 | 0.00 | 0.00 | 0.00 | 96 | 1014.8 |
| 20260505063442 | 47 | 89 | 1.0 | 2.0 | 0.00 | 0.00 | 0.00 | 96 | 1014.7 |
| 20260505063052 | 0 | 0.0 | 0.0 | 0.00 | 0.00 | 0.00 | 1012.3 | ||
| 20260505062939 | 46 | 68 | 0.0 | 2.0 | 0.00 | 0.00 | 0.00 | 96 | 1014.8 |
| 20260505062436 | 46 | 40 | 0.0 | 2.0 | 0.00 | 0.00 | 0.00 | 96 | 1014.9 |
| 20260505061933 | 47 | 44 | 1.0 | 2.0 | 0.00 | 0.00 | 0.00 | 96 | 1014.8 |
| 20260505061613 | 0 | 0.0 | 0.0 | 0.00 | 0.00 | 0.00 | 1012.3 | ||
| 20260505061431 | 47 | 109 | 1.0 | 2.0 | 0.00 | 0.00 | 0.00 | 96 | 1014.6 |
| 20260505060928 | 46 | 79 | 0.0 | 2.0 | 0.00 | 0.00 | 0.00 | 96 | 1014.6 |
| 20260505060425 | 46 | 357 | 2.0 | 2.0 | 0.00 | 0.00 | 0.00 | 95 | 1014.9 |
| 20260505060059 | 0 | 0.0 | 0.0 | 0.00 | 0.00 | 0.00 | 1012.4 | ||
| 20260505055921 | 46 | 358 | 1.0 | 1.0 | 0.00 | 0.00 | 0.00 | 95 | 1014.7 |
| 20260505055418 | 46 | 62 | 1.0 | 2.0 | 0.00 | 0.00 | 0.00 | 95 | 1015.0 |
| 20260505054914 | 46 | 335 | 1.0 | 2.0 | 0.00 | 0.00 | 0.00 | 95 | 1015.0 |
| 20260505054556 | 0 | 0.0 | 0.0 | 0.00 | 0.00 | 0.00 | 1012.8 | ||
| 20260505054412 | 46 | 213 | 0.0 | 2.0 | 0.00 | 0.00 | 0.00 | 95 | 1014.9 |
| 20260505053910 | 46 | 77 | 0.0 | 2.0 | 0.00 | 0.00 | 0.00 | 95 | 1014.4 |
| 20260505053407 | 46 | 53 | 2.0 | 2.0 | 0.00 | 0.00 | 0.00 | 95 | 1014.7 |
| 20260505053052 | 0 | 0.0 | 0.0 | 0.00 | 0.00 | 0.00 | 1012.3 | ||
| 20260505052903 | 46 | 33 | 2.0 | 2.0 | 0.00 | 0.00 | 0.00 | 95 | 1014.9 |
| 20260505052400 | 46 | 68 | 0.0 | 1.0 | 0.00 | 0.00 | 0.00 | 94 | 1014.8 |
| 20260505051858 | 46 | 50 | 0.0 | 2.0 | 0.00 | 0.00 | 0.00 | 94 | 1014.7 |
| 20260505051553 | 0 | 0.0 | 0.0 | 0.00 | 0.00 | 0.00 | 1012.4 | ||
| 20260505051354 | 46 | 46 | 0.0 | 2.0 | 0.00 | 0.00 | 0.00 | 94 | 1014.7 |
| 20260505050853 | 47 | 194 | 1.0 | 2.0 | 0.00 | 0.00 | 0.00 | 94 | 1015.0 |
| 20260505050351 | 47 | 190 | 0.0 | 2.0 | 0.00 | 0.00 | 0.00 | 94 | 1015.0 |
| 20260505041556 | 0 | 0.0 | 0.0 | 0.00 | 0.00 | 0.00 | 1013.0 | ||
| 20260505041318 | 47 | 229 | 0.0 | 1.0 | 0.00 | 0.00 | 0.00 | 93 | 1015.5 |
| 20260505040815 | 47 | 209 | 0.0 | 3.0 | 0.00 | 0.00 | 0.00 | 92 | 1015.5 |
| 20260505040313 | 47 | 60 | 3.0 | 3.0 | 0.00 | 0.00 | 0.00 | 92 | 1015.3 |
| 20260505040100 | 0 | 0.0 | 0.0 | 0.00 | 0.00 | 0.00 | 1013.0 | ||
| 20260505035809 | 47 | 44 | 1.0 | 2.0 | 0.00 | 0.00 | 0.00 | 91 | 1015.4 |
| 20260505035305 | 47 | 55 | 2.0 | 3.0 | 0.00 | 0.00 | 0.00 | 91 | 1015.3 |
| 20260505034803 | 48 | 196 | 1.0 | 2.0 | 0.00 | 0.00 | 0.00 | 90 | 1015.0 |
| 20260505034547 | 0 | 0.0 | 0.0 | 0.00 | 0.00 | 0.00 | 1012.9 | ||
| 20260505034259 | 48 | 72 | 3.0 | 4.0 | 0.00 | 0.00 | 0.00 | 89 | 1015.2 |
| 20260505033756 | 49 | 213 | 0.0 | 4.0 | 0.00 | 0.00 | 0.00 | 87 | 1015.0 |
| 20260505033253 | 49 | 82 | 3.0 | 3.0 | 0.00 | 0.00 | 0.00 | 85 | 1015.2 |
| 20260505033054 | 0 | 0.0 | 0.0 | 0.00 | 0.00 | 0.00 | 1012.8 | ||
| 20260505032751 | 50 | 69 | 0.0 | 4.0 | 0.00 | 0.00 | 0.00 | 81 | 1015.2 |
| 20260505032247 | 52 | 189 | 1.0 | 4.0 | 0.00 | 0.00 | 0.00 | 76 | 1015.0 |
| 20260505031744 | 53 | 78 | 3.0 | 4.0 | 0.00 | 0.00 | 0.00 | 72 | 1014.7 |
| 20260505031553 | 0 | 0.0 | 0.0 | 0.00 | 0.00 | 0.00 | 1012.3 | ||
| 20260505031241 | 53 | 65 | 2.0 | 3.0 | 0.00 | 0.00 | 0.00 | 68 | 1014.4 |
| 20260505030738 | 54 | 183 | 0.0 | 1.0 | 0.00 | 0.00 | 0.00 | 62 | 1014.4 |
| 20260505030234 | 54 | 44 | 0.0 | 0.0 | 0.00 | 0.00 | 0.00 | 59 | 1014.1 |
| 20260505030049 | 0 | 0.0 | 0.0 | 0.00 | 0.00 | 0.00 | 1011.6 | ||
| 20260505025730 | 54 | 85 | 0.0 | 2.0 | 0.00 | 0.00 | 0.00 | 58 | 1013.6 |
| 20260505025228 | 53 | 69 | 0.0 | 1.0 | 0.00 | 0.00 | 0.00 | 60 | 1014.0 |
| 20260505024726 | 53 | 66 | 0.0 | 1.0 | 0.00 | 0.00 | 0.00 | 60 | 1014.0 |
| 20260505024552 | 0 | 0.0 | 0.0 | 0.00 | 0.00 | 0.00 | 1011.4 | ||
| 20260505024223 | 53 | 66 | 0.0 | 2.0 | 0.00 | 0.00 | 0.00 | 61 | 1013.6 |
| 20260505023720 | 53 | 80 | 2.0 | 3.0 | 0.00 | 0.00 | 0.00 | 62 | 1013.6 |
| 20260505023217 | 53 | 91 | 1.0 | 1.0 | 0.00 | 0.00 | 0.00 | 62 | 1013.3 |
| 20260505023048 | 0 | 0.0 | 0.0 | 0.00 | 0.00 | 0.00 | 1011.1 | ||
| 20260505022715 | 53 | 68 | 0.0 | 1.0 | 0.00 | 0.00 | 0.00 | 61 | 1013.5 |
| 20260505022211 | 53 | 89 | 0.0 | 1.0 | 0.00 | 0.00 | 0.00 | 61 | 1013.2 |
| 20260505021708 | 53 | 68 | 0.0 | 2.0 | 0.00 | 0.00 | 0.00 | 61 | 1013.4 |
| 20260505021550 | 0 | 0.0 | 0.0 | 0.00 | 0.00 | 0.00 | 1011.0 | ||
| 20260505021205 | 53 | 93 | 1.0 | 1.0 | 0.00 | 0.00 | 0.00 | 61 | 1013.4 |
| 20260505020701 | 53 | 38 | 0.0 | 2.0 | 0.00 | 0.00 | 0.00 | 61 | 1013.2 |
| 20260505020157 | 54 | 246 | 0.0 | 0.0 | 0.00 | 0.00 | 0.00 | 60 | 1013.3 |
| 20260505020050 | 0 | 0.0 | 0.0 | 0.00 | 0.00 | 0.00 | 1011.0 | ||
| 20260505015654 | 53 | 243 | 0.0 | 1.0 | 0.00 | 0.00 | 0.00 | 60 | 1013.4 |
| 20260505015151 | 53 | 129 | 0.0 | 2.0 | 0.00 | 0.00 | 0.00 | 62 | 1013.6 |
| 20260505014648 | 53 | 89 | 0.0 | 1.0 | 0.00 | 0.00 | 0.00 | 62 | 1013.3 |
| 20260505014551 | 0 | 0.0 | 0.0 | 0.00 | 0.00 | 0.00 | 1011.1 | ||
| 20260505014145 | 54 | 59 | 0.0 | 2.0 | 0.00 | 0.00 | 0.00 | 61 | 1013.0 |
| 20260505013642 | 54 | 65 | 2.0 | 2.0 | 0.00 | 0.00 | 0.00 | 61 | 1012.8 |
| 20260505013139 | 54 | 70 | 2.0 | 2.0 | 0.00 | 0.00 | 0.00 | 61 | 1012.9 |
| 20260505013050 | 0 | 0.0 | 0.0 | 0.00 | 0.00 | 0.00 | 1010.5 | ||
| 20260505012637 | 54 | 80 | 2.0 | 2.0 | 0.00 | 0.00 | 0.00 | 60 | 1013.2 |
| 20260505012134 | 54 | 25 | 0.0 | 1.0 | 0.00 | 0.00 | 0.00 | 60 | 1013.2 |
| 20260505011630 | 55 | 50 | 1.0 | 3.0 | 0.00 | 0.00 | 0.00 | 60 | 1012.9 |
| 20260505011551 | 0 | 0.0 | 0.0 | 0.00 | 0.00 | 0.00 | 1010.6 | ||
| 20260505011128 | 55 | 46 | 2.0 | 4.0 | 0.00 | 0.00 | 0.00 | 59 | 1013.0 |
| 20260505010627 | 55 | 56 | 0.0 | 3.0 | 0.00 | 0.00 | 0.00 | 60 | 1013.0 |
| 20260505010125 | 55 | 54 | 2.0 | 5.0 | 0.00 | 0.00 | 0.00 | 61 | 1012.9 |
| 20260505010058 | 0 | 0.0 | 0.0 | 0.00 | 0.00 | 0.00 | 1010.7 | ||
| 20260505005620 | 55 | 75 | 1.0 | 2.0 | 0.00 | 0.00 | 0.00 | 62 | 1013.2 |
| 20260505005118 | 56 | 111 | 3.0 | 3.0 | 0.00 | 0.00 | 0.00 | 60 | 1013.0 |
| 20260505004615 | 57 | 19 | 2.0 | 5.0 | 0.00 | 0.00 | 0.00 | 51 | 1013.2 |
| 20260505004548 | 0 | 0.0 | 0.0 | 0.00 | 0.00 | 0.00 | 1010.9 | ||
| 20260505004112 | 58 | 59 | 2.0 | 4.0 | 0.00 | 0.00 | 0.00 | 47 | 1012.9 |
| 20260505003609 | 59 | 68 | 3.0 | 6.0 | 0.00 | 0.00 | 0.00 | 45 | 1013.2 |
| 20260505003106 | 59 | 272 | 3.0 | 3.0 | 0.00 | 0.00 | 0.00 | 42 | 1012.7 |
| 20260505003048 | 0 | 0.0 | 0.0 | 0.00 | 0.00 | 0.00 | 1010.7 | ||
| 20260505002602 | 59 | 138 | 1.0 | 8.0 | 0.00 | 0.00 | 0.00 | 42 | 1012.7 |
| 20260505002101 | 60 | 231 | 3.0 | 4.0 | 0.00 | 0.00 | 0.00 | 41 | 1012.8 |
| 20260505001557 | 59 | 71 | 2.0 | 2.0 | 0.00 | 0.00 | 0.00 | 42 | 1012.6 |
| 20260505001552 | 0 | 0.0 | 0.0 | 0.00 | 0.00 | 0.00 | 1010.3 | ||
| 20260505001055 | 59 | 48 | 2.0 | 3.0 | 0.00 | 0.00 | 0.00 | 42 | 1012.4 |
| 20260505000552 | 60 | 58 | 2.0 | 3.0 | 0.00 | 0.00 | 0.00 | 42 | 1012.6 |
| 20260505000100 | 0 | 0.0 | 0.0 | 0.00 | 0.00 | 0.00 | 1009.8 | ||
| 20260505000049 | 60 | 97 | 0.0 | 3.0 | 0.00 | 0.00 | 0.00 | 41 | 1012.3 |
| 20260504235546 | 60 | 104 | 0.0 | 4.0 | 0.00 | 0.00 | 0.00 | 40 | 1012.2 |
| 20260504235043 | 60 | 67 | 2.0 | 7.0 | 0.00 | 0.00 | 0.00 | 39 | 1012.0 |
| 20260504234604 | 0 | 0.0 | 0.0 | 0.00 | 0.00 | 0.00 | 1009.2 | ||
| 20260504234540 | 61 | 292 | 3.0 | 6.0 | 0.00 | 0.00 | 0.00 | 38 | 1011.6 |
| 20260504234037 | 61 | 253 | 2.0 | 4.0 | 0.00 | 0.00 | 0.00 | 37 | 1011.6 |
| 20260504233532 | 61 | 53 | 2.0 | 9.0 | 0.00 | 0.00 | 0.00 | 36 | 1011.6 |
| 20260504233048 | 0 | 0.0 | 0.0 | 0.00 | 0.00 | 0.00 | 1009.2 | ||
| 20260504233029 | 62 | 188 | 1.0 | 6.0 | 0.00 | 0.00 | 0.00 | 36 | 1011.5 |
| 20260504232526 | 62 | 292 | 6.0 | 10.0 | 0.00 | 0.00 | 0.00 | 35 | 1011.5 |
| 20260504232024 | 62 | 89 | 3.0 | 10.0 | 0.00 | 0.00 | 0.00 | 35 | 1011.1 |
| 20260504231552 | 0 | 0.0 | 0.0 | 0.00 | 0.00 | 0.00 | 1009.0 | ||
| 20260504231520 | 62 | 51 | 5.0 | 7.0 | 0.00 | 0.00 | 0.00 | 35 | 1011.5 |
| 20260504231016 | 62 | 81 | 3.0 | 5.0 | 0.00 | 0.00 | 0.00 | 35 | 1011.5 |
| 20260504230513 | 63 | 164 | 3.0 | 5.0 | 0.00 | 0.00 | 0.00 | 34 | 1011.1 |
| 20260504230048 | 0 | 0.0 | 0.0 | 0.00 | 0.00 | 0.00 | 1008.5 | ||
| 20260504230012 | 63 | 53 | 3.0 | 6.0 | 0.00 | 0.00 | 0.00 | 33 | 1011.1 |
| 20260504225508 | 64 | 55 | 2.0 | 4.0 | 0.00 | 0.00 | 0.00 | 32 | 1011.0 |
| 20260504225005 | 64 | 27 | 2.0 | 4.0 | 0.00 | 0.00 | 0.00 | 32 | 1010.9 |
| 20260504224556 | 0 | 0.0 | 0.0 | 0.00 | 0.00 | 0.00 | 1008.4 | ||
| 20260504224502 | 64 | 46 | 2.0 | 6.0 | 0.00 | 0.00 | 0.00 | 32 | 1010.9 |
| 20260504223959 | 64 | 346 | 2.0 | 9.0 | 0.00 | 0.00 | 0.00 | 31 | 1010.8 |
| 20260504223455 | 64 | 98 | 1.0 | 5.0 | 0.00 | 0.00 | 0.00 | 31 | 1011.1 |
| 20260504223054 | 0 | 0.0 | 0.0 | 0.00 | 0.00 | 0.00 | 1008.2 | ||
| 20260504222951 | 64 | 15 | 1.0 | 5.0 | 0.00 | 0.00 | 0.00 | 31 | 1010.6 |
| 20260504222449 | 65 | 64 | 2.0 | 5.0 | 0.00 | 0.00 | 0.00 | 30 | 1010.7 |
| 20260504221946 | 65 | 84 | 5.0 | 7.0 | 0.00 | 0.00 | 0.00 | 30 | 1010.8 |
| 20260504221554 | 0 | 0.0 | 0.0 | 0.00 | 0.00 | 0.00 | 1008.2 | ||
| 20260504221443 | 65 | 119 | 5.0 | 11.0 | 0.00 | 0.00 | 0.00 | 30 | 1010.8 |
| 20260504220940 | 66 | 99 | 3.0 | 6.0 | 0.00 | 0.00 | 0.00 | 29 | 1010.6 |
| 20260504220436 | 67 | 30 | 2.0 | 4.0 | 0.00 | 0.00 | 0.00 | 25 | 1010.9 |
| 20260504220101 | 0 | 0.0 | 0.0 | 0.00 | 0.00 | 0.00 | 1008.1 | ||
| 20260504215934 | 67 | 48 | 1.0 | 4.0 | 0.00 | 0.00 | 0.00 | 25 | 1010.3 |
| 20260504215431 | 67 | 117 | 2.0 | 3.0 | 0.00 | 0.00 | 0.00 | 25 | 1010.2 |
| 20260504214927 | 67 | 327 | 2.0 | 4.0 | 0.00 | 0.00 | 0.00 | 24 | 1010.1 |
| 20260504214558 | 0 | 0.0 | 0.0 | 0.00 | 0.00 | 0.00 | 1008.0 | ||
| 20260504214423 | 68 | 32 | 4.0 | 4.0 | 0.00 | 0.00 | 0.00 | 24 | 1010.3 |
| 20260504213920 | 69 | 109 | 2.0 | 5.0 | 0.00 | 0.00 | 0.00 | 24 | 1010.4 |
| 20260504213416 | 70 | 98 | 4.0 | 5.0 | 0.00 | 0.00 | 0.00 | 24 | 1010.4 |
| 20260504213110 | 0 | 0.0 | 0.0 | 0.00 | 0.00 | 0.00 | 1008.0 | ||
| 20260504212914 | 69 | 43 | 4.0 | 4.0 | 0.00 | 0.00 | 0.00 | 24 | 1010.6 |
| 20260504212409 | 69 | 106 | 1.0 | 4.0 | 0.00 | 0.00 | 0.00 | 25 | 1010.4 |
| 20260504211908 | 70 | 67 | 5.0 | 5.0 | 0.00 | 0.00 | 0.00 | 24 | 1010.6 |
| 20260504211551 | 0 | 0.0 | 0.0 | 0.00 | 0.00 | 0.00 | 1008.1 | ||
| 20260504211403 | 70 | 92 | 0.0 | 9.0 | 0.00 | 0.00 | 0.00 | 24 | 1010.6 |
| 20260504210901 | 71 | 106 | 3.0 | 4.0 | 0.00 | 0.00 | 0.00 | 24 | 1010.6 |
| 20260504210357 | 71 | 25 | 3.0 | 5.0 | 0.00 | 0.00 | 0.00 | 23 | 1010.4 |
| 20260504210052 | 0 | 0.0 | 0.0 | 0.00 | 0.00 | 0.00 | 1008.2 | ||
| 20260504205854 | 72 | 60 | 4.0 | 8.0 | 0.00 | 0.00 | 0.00 | 23 | 1010.7 |
| 20260504205352 | 74 | 74 | 1.0 | 3.0 | 0.00 | 0.00 | 0.00 | 22 | 1010.7 |
| 20260504204850 | 73 | 43 | 2.0 | 3.0 | 0.00 | 0.00 | 0.00 | 21 | 1011.1 |
| 20260504204603 | 0 | 0.0 | 0.0 | 0.00 | 0.00 | 0.00 | 1008.5 | ||
| 20260504204349 | 74 | 21 | 2.0 | 6.0 | 0.00 | 0.00 | 0.00 | 22 | 1011.0 |
| 20260504203848 | 74 | 95 | 0.0 | 5.0 | 0.00 | 0.00 | 0.00 | 21 | 1011.1 |
| 20260504203344 | 72 | 180 | 1.0 | 6.0 | 0.00 | 0.00 | 0.00 | 24 | 1011.3 |
| 20260504203051 | 0 | 0.0 | 0.0 | 0.00 | 0.00 | 0.00 | 1008.6 | ||
| 20260504202840 | 73 | 23 | 3.0 | 4.0 | 0.00 | 0.00 | 0.00 | 22 | 1011.3 |
| 20260504202337 | 73 | 0 | 1.0 | 6.0 | 0.00 | 0.00 | 0.00 | 23 | 1011.4 |
| 20260504201833 | 75 | 81 | 4.0 | 6.0 | 0.00 | 0.00 | 0.00 | 22 | 1011.4 |
| 20260504201547 | 0 | 0.0 | 0.0 | 0.00 | 0.00 | 0.00 | 1008.9 | ||
| 20260504201331 | 73 | 105 | 6.0 | 6.0 | 0.00 | 0.00 | 0.00 | 23 | 1011.4 |
| 20260504200828 | 74 | 297 | 3.0 | 5.0 | 0.00 | 0.00 | 0.00 | 23 | 1011.3 |
| 20260504200325 | 71 | 49 | 4.0 | 6.0 | 0.00 | 0.00 | 0.00 | 24 | 1011.5 |
| 20260504200054 | 0 | 0.0 | 0.0 | 0.00 | 0.00 | 0.00 | 1009.1 | ||
| 20260504195821 | 72 | 27 | 1.0 | 4.0 | 0.00 | 0.00 | 0.00 | 24 | 1011.4 |
| 20260504195317 | 71 | 239 | 3.0 | 7.0 | 0.00 | 0.00 | 0.00 | 25 | 1011.3 |
| 20260504194814 | 72 | 70 | 3.0 | 5.0 | 0.00 | 0.00 | 0.00 | 24 | 1011.4 |
| 20260504194557 | 0 | 0.0 | 0.0 | 0.00 | 0.00 | 0.00 | 1008.9 | ||
| 20260504194310 | 73 | 59 | 6.0 | 8.0 | 0.00 | 0.00 | 0.00 | 24 | 1011.5 |
| 20260504193806 | 74 | 120 | 2.0 | 5.0 | 0.00 | 0.00 | 0.00 | 24 | 1011.3 |
| 20260504193304 | 72 | 47 | 2.0 | 5.0 | 0.00 | 0.00 | 0.00 | 23 | 1011.5 |
| 20260504193104 | 0 | 0.0 | 0.0 | 0.00 | 0.00 | 0.00 | 1008.9 | ||
| 20260504192802 | 72 | 80 | 2.0 | 4.0 | 0.00 | 0.00 | 0.00 | 23 | 1011.5 |
| 20260504192300 | 72 | 45 | 4.0 | 9.0 | 0.00 | 0.00 | 0.00 | 23 | 1011.5 |
| 20260504191758 | 72 | 28 | 3.0 | 4.0 | 0.00 | 0.00 | 0.00 | 24 | 1011.4 |
| 20260504191555 | 0 | 0.0 | 0.0 | 0.00 | 0.00 | 0.00 | 1009.1 | ||
| 20260504191255 | 71 | 81 | 3.0 | 3.0 | 0.00 | 0.00 | 0.00 | 23 | 1011.4 |
| 20260504190750 | 68 | 49 | 2.0 | 3.0 | 0.00 | 0.00 | 0.00 | 25 | 1011.5 |
| 20260504190247 | 67 | 161 | 2.0 | 3.0 | 0.00 | 0.00 | 0.00 | 28 | 1011.4 |
| 20260504190106 | 0 | 0.0 | 0.0 | 0.00 | 0.00 | 0.00 | 1009.2 | ||
| 20260504185744 | 67 | 22 | 1.0 | 4.0 | 0.00 | 0.00 | 0.00 | 24 | 1011.5 |
| 20260504185241 | 67 | 64 | 0.0 | 3.0 | 0.00 | 0.00 | 0.00 | 26 | 1011.4 |
| 20260504184737 | 66 | 196 | 0.0 | 3.0 | 0.00 | 0.00 | 0.00 | 25 | 1011.5 |
| 20260504184554 | 0 | 0.0 | 0.0 | 0.00 | 0.00 | 0.00 | 1009.1 | ||
| 20260504184233 | 65 | 279 | 1.0 | 4.0 | 0.00 | 0.00 | 0.00 | 26 | 1011.6 |
| 20260504183729 | 64 | 219 | 3.0 | 3.0 | 0.00 | 0.00 | 0.00 | 28 | 1011.6 |
| 20260504183226 | 65 | 14 | 1.0 | 8.0 | 0.00 | 0.00 | 0.00 | 28 | 1011.9 |
| 20260504183101 | 0 | 0.0 | 0.0 | 0.00 | 0.00 | 0.00 | 1009.9 | ||
| 20260504182724 | 67 | 258 | 2.0 | 8.0 | 0.00 | 0.00 | 0.00 | 24 | 1011.3 |
| 20260504182221 | 67 | 49 | 5.0 | 5.0 | 0.00 | 0.00 | 0.00 | 23 | 1011.6 |
| 20260504181718 | 68 | 227 | 1.0 | 2.0 | 0.00 | 0.00 | 0.00 | 23 | 1011.4 |
| 20260504181554 | 0 | 0.0 | 0.0 | 0.00 | 0.00 | 0.00 | 1009.0 | ||
| 20260504181216 | 68 | 265 | 0.0 | 2.0 | 0.00 | 0.00 | 0.00 | 23 | 1011.1 |
| 20260504180715 | 68 | 162 | 0.0 | 2.0 | 0.00 | 0.00 | 0.00 | 22 | 1011.4 |
| 20260504180213 | 68 | 103 | 0.0 | 2.0 | 0.00 | 0.00 | 0.00 | 21 | 1011.0 |
| 20260504180131 | 0 | 0.0 | 0.0 | 0.00 | 0.00 | 0.00 | 1009.0 | ||
| 20260504175710 | 69 | 92 | 1.0 | 2.0 | 0.00 | 0.00 | 0.00 | 21 | 1011.3 |
| 20260504175207 | 69 | 179 | 1.0 | 2.0 | 0.00 | 0.00 | 0.00 | 23 | 1011.3 |
| 20260504174705 | 69 | 75 | 2.0 | 3.0 | 0.00 | 0.00 | 0.00 | 22 | 1011.4 |
| 20260504174556 | 0 | 0.0 | 0.0 | 0.00 | 0.00 | 0.00 | 1009.1 | ||
| 20260504174202 | 69 | 22 | 1.0 | 3.0 | 0.00 | 0.00 | 0.00 | 23 | 1011.5 |
| 20260504173658 | 70 | 229 | 0.0 | 4.0 | 0.00 | 0.00 | 0.00 | 22 | 1011.5 |
| 20260504173155 | 71 | 294 | 2.0 | 4.0 | 0.00 | 0.00 | 0.00 | 21 | 1011.5 |
| 20260504173049 | 0 | 0.0 | 0.0 | 0.00 | 0.00 | 0.00 | 1009.3 | ||
| 20260504172652 | 72 | 240 | 2.0 | 4.0 | 0.00 | 0.00 | 0.00 | 21 | 1011.5 |
| 20260504172148 | 72 | 238 | 2.0 | 4.0 | 0.00 | 0.00 | 0.00 | 21 | 1011.6 |
| 20260504171645 | 71 | 46 | 3.0 | 8.0 | 0.00 | 0.00 | 0.00 | 21 | 1012.0 |
| 20260504171554 | 0 | 0.0 | 0.0 | 0.00 | 0.00 | 0.00 | 1009.5 | ||
| 20260504171143 | 71 | 184 | 2.0 | 4.0 | 0.00 | 0.00 | 0.00 | 21 | 1011.7 |
| 20260504170639 | 70 | 254 | 4.0 | 5.0 | 0.00 | 0.00 | 0.00 | 21 | 1011.9 |
| 20260504170136 | 71 | 200 | 2.0 | 3.0 | 0.00 | 0.00 | 0.00 | 21 | 1012.0 |